createdAt,value
2019-04-11T00:02:25.390Z,100459.19
2019-04-11T00:05:28.608Z,100457.87
2019-04-11T00:08:32.185Z,100467.13
2019-04-11T00:11:35.780Z,100465.73
2019-04-11T00:14:40.085Z,100470.59
2019-04-11T00:17:43.881Z,100476.80
2019-04-11T00:20:46.966Z,100478.09
2019-04-11T00:23:50.644Z,100487.74
2019-04-11T00:26:54.903Z,100486.42
2019-04-11T00:29:59.712Z,100482.92
2019-04-11T00:33:02.655Z,100485.10
2019-04-11T00:36:06.362Z,100482.91
2019-04-11T00:39:11.533Z,100478.95
2019-04-11T00:42:14.595Z,100480.28
2019-04-11T00:45:17.618Z,100481.58
2019-04-11T00:48:21.697Z,100481.56
2019-04-11T00:51:25.701Z,100484.68
2019-04-11T00:54:29.056Z,100482.91
2019-04-11T00:57:33.785Z,100487.70
2019-04-11T01:00:37.087Z,100487.71
2019-04-11T01:03:41.583Z,100488.99
2019-04-11T01:06:44.840Z,100492.13
2019-04-11T01:09:48.573Z,100494.73
2019-04-11T01:12:51.615Z,100489.02
2019-04-11T01:16:03.058Z,100499.94
2019-04-11T01:19:06.692Z,100502.57
2019-04-11T01:22:10.049Z,100499.94
2019-04-11T01:25:14.708Z,100498.63
2019-04-11T01:28:18.565Z,100501.30
2019-04-11T01:31:23.930Z,100500.70
2019-04-11T01:34:26.877Z,100497.61
2019-04-11T01:37:31.426Z,100498.14
2019-04-11T01:40:36.083Z,100505.63
2019-04-11T01:43:41.031Z,100504.73
2019-04-11T01:46:44.445Z,100505.14
2019-04-11T01:49:48.237Z,100506.08
2019-04-11T01:52:51.346Z,100509.64
2019-04-11T01:55:54.265Z,100511.76
2019-04-11T01:58:59.322Z,100516.11
2019-04-11T02:02:40.822Z,100514.22
2019-04-11T02:05:43.855Z,100518.77
2019-04-11T02:09:01.831Z,100520.31
2019-04-11T02:12:06.866Z,100522.41
2019-04-11T02:15:10.278Z,100525.76
2019-04-11T02:18:13.708Z,100529.74
2019-04-11T02:21:17.917Z,100523.97
2019-04-11T02:24:56.305Z,100529.19
2019-04-11T02:28:01.519Z,100531.66
2019-04-11T02:31:09.068Z,100534.30
2019-04-11T02:34:11.837Z,100534.32
2019-04-11T02:37:17.356Z,100540.02
2019-04-11T02:40:22.934Z,100535.25
2019-04-11T02:43:27.389Z,100536.05
2019-04-11T02:46:38.517Z,100536.45
2019-04-11T02:49:36.033Z,100546.92
2019-04-11T02:52:40.908Z,100543.77
2019-04-11T02:55:46.583Z,100549.06
2019-04-11T02:58:50.994Z,100549.45
2019-04-11T03:01:55.828Z,100552.03
2019-04-11T03:05:00.437Z,100552.84
2019-04-11T03:08:09.216Z,100551.53
2019-04-11T03:11:10.605Z,100556.39
2019-04-11T03:14:16.375Z,100553.66
2019-04-11T03:17:25.005Z,100556.45
2019-04-11T03:20:34.490Z,100556.78
2019-04-11T03:23:33.216Z,100557.20
2019-04-11T03:26:37.864Z,100560.17
2019-04-11T03:29:42.970Z,100565.45
2019-04-11T03:33:49.614Z,100561.11
2019-04-11T03:36:43.823Z,100569.89
2019-04-11T03:39:15.342Z,100568.56
2019-04-11T03:42:16.924Z,100564.69
2019-04-11T03:45:40.102Z,100566.81
2019-04-11T03:48:30.687Z,100573.67
2019-04-11T03:51:21.019Z,100568.55
2019-04-11T03:54:25.266Z,100569.80
2019-04-11T03:57:29.897Z,100573.66
2019-04-11T04:00:36.360Z,100574.14
2019-04-11T04:03:39.347Z,100578.08
2019-04-11T04:06:43.439Z,100582.30
2019-04-11T04:09:49.021Z,100584.12
2019-04-11T04:12:53.667Z,100591.97
2019-04-11T04:16:15.287Z,100596.75
2019-04-11T04:19:20.508Z,100602.23
2019-04-11T04:22:32.287Z,100605.59
2019-04-11T04:25:36.809Z,100608.46
2019-04-11T04:28:41.016Z,100608.01
2019-04-11T04:31:44.246Z,100610.80
2019-04-11T04:34:49.083Z,100608.17
2019-04-11T04:37:52.497Z,100621.19
2019-04-11T04:41:13.594Z,100618.36
2019-04-11T04:44:04.591Z,100623.86
2019-04-11T04:47:16.492Z,100622.41
2019-04-11T04:50:14.926Z,100624.56
2019-04-11T04:53:18.080Z,100636.84
2019-04-11T04:56:27.058Z,100636.94
2019-04-11T04:59:28.311Z,100646.05
2019-04-11T05:02:35.404Z,100646.88
2019-04-11T05:05:38.965Z,100645.54
2019-04-11T05:08:43.093Z,100654.64
2019-04-11T05:11:46.780Z,100655.06
2019-04-11T05:14:51.814Z,100654.04
2019-04-11T05:17:55.312Z,100660.26
2019-04-11T05:20:58.971Z,100659.64
2019-04-11T05:24:02.421Z,100659.52
2019-04-11T05:27:06.238Z,100662.88
2019-04-11T05:30:09.553Z,100665.50
2019-04-11T05:33:13.620Z,100665.39
2019-04-11T05:36:16.654Z,100672.06
2019-04-11T05:39:20.025Z,100668.50
2019-04-11T05:42:26.414Z,100675.62
2019-04-11T05:45:28.303Z,100674.56
2019-04-11T05:48:47.140Z,100675.94
2019-04-11T05:51:58.799Z,100669.51
2019-04-11T05:55:08.269Z,100673.70
2019-04-11T05:58:14.096Z,100674.20
2019-04-11T06:01:22.284Z,100676.30
2019-04-11T06:04:36.355Z,100672.62
2019-04-11T06:07:50.761Z,100677.91
2019-04-11T06:11:17.262Z,100670.75
2019-04-11T06:14:45.077Z,100674.77
2019-04-11T06:17:48.568Z,100680.55
2019-04-11T06:20:53.622Z,100678.47
2019-04-11T06:24:16.338Z,100689.39
2019-04-11T06:27:45.562Z,100688.97
2019-04-11T06:31:11.883Z,100693.81
2019-04-11T06:34:15.548Z,100696.02
2019-04-11T06:37:36.116Z,100698.48
2019-04-11T06:40:50.993Z,100698.07
2019-04-11T06:44:17.085Z,100707.81
2019-04-11T06:47:43.079Z,100709.21
2019-04-11T06:51:00.056Z,100713.98
2019-04-11T06:54:19.040Z,100713.13
2019-04-11T06:57:23.833Z,100717.11
2019-04-11T07:00:27.327Z,100717.14
2019-04-11T07:03:33.952Z,100717.13
2019-04-11T07:06:38.347Z,100717.70
2019-04-11T07:10:02.167Z,100718.21
2019-04-11T07:13:14.275Z,100723.31
2019-04-11T07:16:18.523Z,100728.31
2019-04-11T07:19:48.026Z,100730.96
2019-04-11T07:23:09.610Z,100724.91
2019-04-11T07:26:45.747Z,100723.98
2019-04-11T07:30:15.723Z,100720.08
2019-04-11T07:33:54.190Z,100728.47
2019-04-11T07:37:23.608Z,100725.42
2019-04-11T07:40:45.827Z,100725.03
2019-04-11T07:43:49.988Z,100729.85
2019-04-11T07:47:13.595Z,100725.03
2019-04-11T07:50:11.484Z,100736.89
2019-04-11T07:53:15.805Z,100732.49
2019-04-11T07:56:48.524Z,100731.16
2019-04-11T08:00:10.530Z,100733.37
2019-04-11T08:03:32.558Z,100731.56
2019-04-11T08:06:54.298Z,100733.72
2019-04-11T08:10:02.603Z,100735.50
2019-04-11T08:13:10.260Z,100741.61
2019-04-11T08:16:32.993Z,100733.16
2019-04-11T08:19:55.356Z,100728.70
2019-04-11T08:23:09.614Z,100734.91
2019-04-11T08:26:32.277Z,100735.81
2019-04-11T08:29:36.001Z,100737.44
2019-04-11T08:32:53.803Z,100741.02
2019-04-11T08:36:22.427Z,100736.64
2019-04-11T08:39:33.245Z,100739.28
2019-04-11T08:42:57.005Z,100743.60
2019-04-11T08:46:04.681Z,100745.73
2019-04-11T08:49:15.257Z,100755.09
2019-04-11T08:52:32.572Z,100745.83
2019-04-11T08:55:48.575Z,100753.25
2019-04-11T08:59:46.139Z,100759.88
2019-04-11T09:02:59.961Z,100755.39
2019-04-11T09:06:12.551Z,100750.48
2019-04-11T09:09:31.398Z,100753.16
2019-04-11T09:12:36.409Z,100755.17
2019-04-11T09:15:57.753Z,100748.13
2019-04-11T09:19:06.323Z,100748.53
2019-04-11T09:22:27.493Z,100749.33
2019-04-11T09:25:51.672Z,100750.59
2019-04-11T09:28:56.236Z,100747.44
2019-04-11T09:32:18.148Z,100748.61
2019-04-11T09:35:27.600Z,100744.07
2019-04-11T09:38:30.869Z,100746.50
2019-04-11T09:41:52.916Z,100744.34
2019-04-11T09:45:03.552Z,100743.65
2019-04-11T09:48:42.370Z,100739.29
2019-04-11T09:52:02.614Z,100730.52
2019-04-11T09:55:31.251Z,100739.95
2019-04-11T09:58:35.684Z,100736.27
2019-04-11T10:01:58.158Z,100735.98
2019-04-11T10:05:02.770Z,100738.68
2019-04-11T10:08:24.631Z,100733.48
2019-04-11T10:11:54.915Z,100734.81
2019-04-11T10:14:58.785Z,100738.37
2019-04-11T10:18:27.701Z,100729.67
2019-04-11T10:21:30.855Z,100728.70
2019-04-11T10:24:51.446Z,100731.59
2019-04-11T10:28:29.754Z,100734.50
2019-04-11T10:31:35.347Z,100726.08
2019-04-11T10:35:08.259Z,100725.08
2019-04-11T10:38:12.569Z,100732.68
2019-04-11T10:41:44.355Z,100723.39
2019-04-11T10:45:06.722Z,100732.84
2019-04-11T10:48:10.272Z,100743.00
2019-04-11T10:51:23.169Z,100740.34
2019-04-11T10:54:26.469Z,100735.87
2019-04-11T10:57:42.858Z,100736.11
2019-04-11T11:00:53.654Z,100734.55
2019-04-11T11:04:09.530Z,100741.66
2019-04-11T11:07:16.817Z,100730.05
2019-04-11T11:10:23.803Z,100728.55
2019-04-11T11:13:52.435Z,100737.18
2019-04-11T11:17:02.483Z,100746.03
2019-04-11T11:20:38.511Z,100749.37
2019-04-11T11:23:56.932Z,100752.17
2019-04-11T11:27:02.865Z,100752.81
2019-04-11T11:30:25.025Z,100739.16
2019-04-11T11:33:30.216Z,100749.81
2019-04-11T11:36:54.470Z,100753.19
2019-04-11T11:40:19.642Z,100739.10
2019-04-11T11:43:30.920Z,100751.30
2019-04-11T11:46:48.408Z,100751.95
2019-04-11T11:49:58.692Z,100756.52
2019-04-11T11:53:25.795Z,100752.13
2019-04-11T11:56:28.301Z,100760.77
2019-04-11T11:59:56.908Z,100742.92
2019-04-11T12:03:17.416Z,100741.62
2019-04-11T12:06:23.565Z,100743.62
2019-04-11T12:09:55.359Z,100743.25
2019-04-11T12:13:13.333Z,100744.88
2019-04-11T12:16:21.921Z,100743.80
2019-04-11T12:19:42.635Z,100746.54
2019-04-11T12:22:40.558Z,100747.66
2019-04-11T12:25:44.988Z,100743.38
2019-04-11T12:29:06.473Z,100738.08
2019-04-11T12:32:14.509Z,100736.92
2019-04-11T12:35:57.880Z,100748.54
2019-04-11T12:39:33.088Z,100746.01
2019-04-11T12:42:37.929Z,100736.03
2019-04-11T12:46:12.488Z,100738.97
2019-04-11T12:49:24.736Z,100741.96
2019-04-11T12:52:50.897Z,100744.17
2019-04-11T12:56:19.382Z,100730.61
2019-04-11T12:59:26.283Z,100727.81
2019-04-11T13:02:47.454Z,100733.33
2019-04-11T13:05:53.234Z,100735.41
2019-04-11T13:09:14.148Z,100731.26
2019-04-11T13:12:34.698Z,100736.53
2019-04-11T13:15:40.375Z,100733.48
2019-04-11T13:19:02.931Z,100733.73
2019-04-11T13:22:10.935Z,100720.23
2019-04-11T13:25:38.802Z,100718.73
2019-04-11T13:28:43.622Z,100718.34
2019-04-11T13:32:24.300Z,100710.59
2019-04-11T13:36:03.967Z,100729.08
2019-04-11T13:39:07.705Z,100711.27
2019-04-11T13:42:40.019Z,100712.76
2019-04-11T13:45:55.690Z,100719.66
2019-04-11T13:49:15.102Z,100713.10
2019-04-11T13:52:37.954Z,100727.03
2019-04-11T13:55:42.290Z,100715.30
2019-04-11T13:59:04.495Z,100725.17
2019-04-11T14:02:15.258Z,100715.44
2019-04-11T14:05:18.254Z,100714.12
2019-04-11T14:08:25.340Z,100711.59
2019-04-11T14:11:28.950Z,100716.36
2019-04-11T14:14:39.921Z,100714.13
2019-04-11T14:17:57.407Z,100704.13
2019-04-11T14:21:06.686Z,100708.00
2019-04-11T14:24:42.232Z,100704.11
2019-04-11T14:27:45.733Z,100702.33
2019-04-11T14:31:07.066Z,100702.16
2019-04-11T14:34:32.644Z,100696.34
2019-04-11T14:37:41.502Z,100692.16
2019-04-11T14:41:01.809Z,100688.70
2019-04-11T14:44:05.343Z,100689.35
2019-04-11T14:47:34.817Z,100691.00
2019-04-11T14:50:53.953Z,100698.60
2019-04-11T14:54:03.731Z,100693.39
2019-04-11T14:57:25.357Z,100687.69
2019-04-11T15:00:39.295Z,100691.04
2019-04-11T15:04:06.959Z,100687.28
2019-04-11T15:07:12.835Z,100683.03
2019-04-11T15:10:45.720Z,100685.25
2019-04-11T15:13:53.001Z,100685.70
2019-04-11T15:17:09.049Z,100679.73
2019-04-11T15:20:34.714Z,100680.30
2019-04-11T15:23:43.336Z,100680.52
2019-04-11T15:27:12.024Z,100685.19
2019-04-11T15:30:16.961Z,100679.84
2019-04-11T15:33:38.846Z,100674.77
2019-04-11T15:36:47.976Z,100673.63
2019-04-11T15:40:01.450Z,100681.05
2019-04-11T15:43:42.032Z,100667.87
2019-04-11T15:46:47.536Z,100677.42
2019-04-11T15:50:09.672Z,100679.36
2019-04-11T15:53:17.323Z,100686.26
2019-04-11T15:56:41.728Z,100682.92
2019-04-11T16:00:03.291Z,100684.73
2019-04-11T16:03:15.548Z,100683.50
2019-04-11T16:06:38.796Z,100687.21
2019-04-11T16:09:42.168Z,100685.98
2019-04-11T16:12:52.829Z,100692.83
2019-04-11T16:16:05.211Z,100684.30
2019-04-11T16:19:26.185Z,100682.73
2019-04-11T16:22:47.574Z,100684.37
2019-04-11T16:25:52.524Z,100687.94
2019-04-11T16:29:14.237Z,100692.67
2019-04-11T16:32:17.575Z,100697.63
2019-04-11T16:35:29.248Z,100701.21
2019-04-11T16:38:38.253Z,100704.74
2019-04-11T16:42:01.840Z,100708.89
2019-04-11T16:45:39.853Z,100709.45
2019-04-11T16:48:42.878Z,100709.08
2019-04-11T16:51:45.828Z,100715.48
2019-04-11T16:54:48.777Z,100720.06
2019-04-11T16:57:52.454Z,100722.07
2019-04-11T17:00:56.853Z,100720.58
2019-04-11T17:03:59.849Z,100719.61
2019-04-11T17:07:15.322Z,100713.92
2019-04-11T17:10:19.804Z,100723.82
2019-04-11T17:13:23.810Z,100722.16
2019-04-11T17:16:30.709Z,100723.63
2019-04-11T17:19:35.869Z,100737.05
2019-04-11T17:22:38.003Z,100734.62
2019-04-11T17:25:41.197Z,100737.25
2019-04-11T17:28:44.152Z,100737.46
2019-04-11T17:31:47.483Z,100744.41
2019-04-11T17:34:50.784Z,100736.11
2019-04-11T17:37:54.214Z,100739.70
2019-04-11T17:40:57.295Z,100737.30
2019-04-11T17:44:00.387Z,100751.91
2019-04-11T17:47:03.350Z,100752.16
2019-04-11T17:50:07.702Z,100752.36
2019-04-11T17:53:10.645Z,100755.37
2019-04-11T17:56:13.678Z,100765.48
2019-04-11T17:59:16.700Z,100766.00
2019-04-11T18:02:19.661Z,100767.01
2019-04-11T18:05:22.775Z,100766.05
2019-04-11T18:08:26.113Z,100770.48
2019-04-11T18:11:29.351Z,100780.89
2019-04-11T18:14:33.314Z,100782.59
2019-04-11T18:17:36.352Z,100785.63
2019-04-11T18:20:41.021Z,100787.20
2019-04-11T18:23:44.082Z,100791.80
2019-04-11T18:26:47.037Z,100798.78
2019-04-11T18:29:52.539Z,100801.38
2019-04-11T18:32:54.827Z,100801.09
2019-04-11T18:36:01.720Z,100806.06
2019-04-11T18:39:05.949Z,100806.01
2019-04-11T18:42:09.297Z,100814.15
2019-04-11T18:45:14.178Z,100811.22
2019-04-11T18:48:17.124Z,100816.06
2019-04-11T18:51:20.879Z,100816.95
2019-04-11T18:54:24.914Z,100812.98
2019-04-11T18:57:28.204Z,100820.55
2019-04-11T19:00:31.156Z,100822.03
2019-04-11T19:03:36.329Z,100822.91
2019-04-11T19:06:42.583Z,100825.48
2019-04-11T19:09:45.000Z,100827.69
2019-04-11T19:12:47.940Z,100831.72
2019-04-11T19:15:50.884Z,100830.80
2019-04-11T19:18:53.821Z,100831.20
2019-04-11T19:21:56.762Z,100830.33
2019-04-11T19:24:59.729Z,100833.95
2019-04-11T19:28:02.692Z,100829.89
2019-04-11T19:31:05.682Z,100829.92
2019-04-11T19:34:09.054Z,100831.31
2019-04-11T19:37:12.999Z,100828.67
2019-04-11T19:40:16.960Z,100833.08
2019-04-11T19:43:20.015Z,100829.59
2019-04-11T19:46:22.962Z,100828.85
2019-04-11T19:49:28.812Z,100829.27
2019-04-11T19:52:32.633Z,100841.25
2019-04-11T19:55:54.876Z,100836.87
2019-04-11T19:58:57.884Z,100830.66
2019-04-11T20:02:01.168Z,100830.28
2019-04-11T20:05:04.688Z,100830.77
2019-04-11T20:08:07.749Z,100828.59
2019-04-11T20:11:10.684Z,100841.80
2019-04-11T20:14:13.859Z,100837.84
2019-04-11T20:17:19.321Z,100832.17
2019-04-11T20:20:21.985Z,100835.67
2019-04-11T20:23:25.319Z,100835.25
2019-04-11T20:26:28.260Z,100835.68
2019-04-11T20:29:31.173Z,100839.63
2019-04-11T20:32:34.441Z,100834.75
2019-04-11T20:35:40.005Z,100839.63
2019-04-11T20:38:44.678Z,100846.66
2019-04-11T20:41:53.232Z,100841.84
2019-04-11T20:44:58.184Z,100831.75
2019-04-11T20:48:00.278Z,100833.48
2019-04-11T20:51:04.454Z,100828.66
2019-04-11T20:54:07.979Z,100823.37
2019-04-11T20:57:12.851Z,100822.05
2019-04-11T21:00:16.182Z,100828.22
2019-04-11T21:03:19.453Z,100826.85
2019-04-11T21:06:22.390Z,100832.17
2019-04-11T21:09:25.455Z,100833.05
2019-04-11T21:12:28.360Z,100831.28
2019-04-11T21:15:31.299Z,100824.63
2019-04-11T21:18:34.519Z,100833.39
2019-04-11T21:21:37.456Z,100831.23
2019-04-11T21:24:40.707Z,100832.55
2019-04-11T21:27:43.630Z,100840.83
2019-04-11T21:30:46.588Z,100842.62
2019-04-11T21:33:49.527Z,100837.78
2019-04-11T21:36:52.441Z,100845.74
2019-04-11T21:39:55.385Z,100843.51
2019-04-11T21:42:58.303Z,100851.80
2019-04-11T21:46:04.089Z,100848.73
2019-04-11T21:49:07.045Z,100847.87
2019-04-11T21:52:12.338Z,100851.69
2019-04-11T21:55:16.408Z,100863.03
2019-04-11T21:58:20.461Z,100865.01
2019-04-11T22:01:24.856Z,100865.16
2019-04-11T22:04:31.217Z,100866.56
2019-04-11T22:07:34.290Z,100859.44
2019-04-11T22:10:40.146Z,100857.30
2019-04-11T22:13:42.754Z,100856.20
2019-04-11T22:16:45.684Z,100858.81
2019-04-11T22:19:48.613Z,100864.01
2019-04-11T22:22:51.830Z,100854.48
2019-04-11T22:25:54.753Z,100853.26
2019-04-11T22:28:57.671Z,100857.16
2019-04-11T22:32:00.920Z,100860.54
2019-04-11T22:35:04.352Z,100861.11
2019-04-11T22:38:07.284Z,100857.98
2019-04-11T22:41:10.216Z,100863.67
2019-04-11T22:44:13.526Z,100862.48
2019-04-11T22:47:16.634Z,100864.72
2019-04-11T22:50:19.923Z,100860.75
2019-04-11T22:53:23.212Z,100866.58
2019-04-11T22:56:26.138Z,100865.78
2019-04-11T22:59:29.071Z,100864.52
2019-04-11T23:02:39.023Z,100859.67
2019-04-11T23:05:41.976Z,100860.59
2019-04-11T23:08:48.601Z,100857.56
2019-04-11T23:11:50.029Z,100860.98
2019-04-11T23:14:52.951Z,100857.06
2019-04-11T23:17:56.219Z,100857.02
2019-04-11T23:20:59.149Z,100855.72
2019-04-11T23:24:11.434Z,100852.28
2019-04-11T23:27:06.914Z,100857.52
2019-04-11T23:30:12.776Z,100864.56
2019-04-11T23:33:16.368Z,100858.83
2019-04-11T23:36:21.265Z,100861.45
2019-04-11T23:39:25.835Z,100864.55
2019-04-11T23:42:29.074Z,100868.55
2019-04-11T23:45:32.424Z,100868.13
2019-04-11T23:48:36.013Z,100878.65
2019-04-11T23:51:39.355Z,100878.20
2019-04-11T23:54:42.626Z,100874.73
2019-04-11T23:57:45.556Z,100877.77
